sensor_id;sensor_type;location;lat;lon;timestamp;pressure;altitude;pressure_sealevel;temperature;humidity
80733;BME280;70130;44.534;18.678;2023-07-08T00:00:33;99497.41;;;17.40;75.24
80733;BME280;70130;44.534;18.678;2023-07-08T00:02:58;99498.97;;;17.21;75.76
80733;BME280;70130;44.534;18.678;2023-07-08T00:05:25;99508.66;;;17.22;75.55
80733;BME280;70130;44.534;18.678;2023-07-08T00:07:51;99496.75;;;17.27;75.28
80733;BME280;70130;44.534;18.678;2023-07-08T00:10:20;99503.44;;;17.14;76.14
80733;BME280;70130;44.534;18.678;2023-07-08T00:12:49;99502.25;;;17.11;76.06
80733;BME280;70130;44.534;18.678;2023-07-08T00:15:15;99505.81;;;17.15;75.71
80733;BME280;70130;44.534;18.678;2023-07-08T00:17:42;99506.22;;;17.17;75.37
80733;BME280;70130;44.534;18.678;2023-07-08T00:20:20;99502.59;;;17.10;75.53
80733;BME280;70130;44.534;18.678;2023-07-08T00:22:47;99503.94;;;17.19;75.62
80733;BME280;70130;44.534;18.678;2023-07-08T00:25:18;99505.03;;;17.15;75.59
80733;BME280;70130;44.534;18.678;2023-07-08T00:27:47;99505.75;;;17.12;75.50
80733;BME280;70130;44.534;18.678;2023-07-08T00:30:31;99499.28;;;17.01;75.43
80733;BME280;70130;44.534;18.678;2023-07-08T00:32:58;99509.75;;;17.02;75.53
80733;BME280;70130;44.534;18.678;2023-07-08T00:35:34;99513.13;;;16.96;75.92
80733;BME280;70130;44.534;18.678;2023-07-08T00:38:01;99502.38;;;16.68;76.80
80733;BME280;70130;44.534;18.678;2023-07-08T00:40:32;99507.72;;;16.80;76.37
80733;BME280;70130;44.534;18.678;2023-07-08T00:43:01;99505.88;;;16.84;76.09
80733;BME280;70130;44.534;18.678;2023-07-08T00:46:01;99506.13;;;16.79;76.27
80733;BME280;70130;44.534;18.678;2023-07-08T00:48:31;99512.34;;;16.79;76.28
80733;BME280;70130;44.534;18.678;2023-07-08T00:50:59;99509.84;;;16.71;76.38
80733;BME280;70130;44.534;18.678;2023-07-08T00:53:32;99513.41;;;16.59;76.88
80733;BME280;70130;44.534;18.678;2023-07-08T00:56:20;99500.47;;;16.68;76.25
80733;BME280;70130;44.534;18.678;2023-07-08T01:01:23;99492.72;;;16.67;76.09
80733;BME280;70130;44.534;18.678;2023-07-08T01:03:56;99502.84;;;16.70;76.31
80733;BME280;70130;44.534;18.678;2023-07-08T01:06:24;99499.19;;;16.62;76.51
80733;BME280;70130;44.534;18.678;2023-07-08T01:08:59;99510.25;;;16.57;76.79
80733;BME280;70130;44.534;18.678;2023-07-08T01:11:28;99493.47;;;16.52;76.71
80733;BME280;70130;44.534;18.678;2023-07-08T01:13:55;99508.88;;;16.48;77.02
80733;BME280;70130;44.534;18.678;2023-07-08T01:16:22;99511.72;;;16.39;77.16
80733;BME280;70130;44.534;18.678;2023-07-08T01:18:48;99513.66;;;16.38;77.34
80733;BME280;70130;44.534;18.678;2023-07-08T01:21:35;99516.81;;;16.40;77.15
80733;BME280;70130;44.534;18.678;2023-07-08T01:24:03;99515.94;;;16.36;77.06
80733;BME280;70130;44.534;18.678;2023-07-08T01:26:33;99520.75;;;16.27;77.66
80733;BME280;70130;44.534;18.678;2023-07-08T01:29:01;99511.72;;;16.23;77.72
80733;BME280;70130;44.534;18.678;2023-07-08T01:31:28;99512.88;;;16.22;77.47
80733;BME280;70130;44.534;18.678;2023-07-08T01:33:54;99514.53;;;16.27;77.14
80733;BME280;70130;44.534;18.678;2023-07-08T01:36:22;99514.56;;;15.99;77.76
80733;BME280;70130;44.534;18.678;2023-07-08T01:38:48;99514.44;;;15.80;79.11
80733;BME280;70130;44.534;18.678;2023-07-08T01:41:16;99520.97;;;15.79;79.25
80733;BME280;70130;44.534;18.678;2023-07-08T01:43:43;99518.44;;;15.98;78.49
80733;BME280;70130;44.534;18.678;2023-07-08T01:46:19;99511.22;;;15.90;78.96
80733;BME280;70130;44.534;18.678;2023-07-08T01:48:50;99505.31;;;16.00;78.48
80733;BME280;70130;44.534;18.678;2023-07-08T01:51:17;99502.03;;;16.07;78.13
80733;BME280;70130;44.534;18.678;2023-07-08T01:53:43;99515.63;;;16.10;78.24
80733;BME280;70130;44.534;18.678;2023-07-08T01:56:12;99499.03;;;15.96;78.25
80733;BME280;70130;44.534;18.678;2023-07-08T01:58:38;99510.66;;;15.96;78.10
80733;BME280;70130;44.534;18.678;2023-07-08T02:01:04;99514.31;;;15.88;78.29
80733;BME280;70130;44.534;18.678;2023-07-08T02:03:30;99524.34;;;15.88;78.62
80733;BME280;70130;44.534;18.678;2023-07-08T02:05:56;99522.22;;;15.81;78.47
80733;BME280;70130;44.534;18.678;2023-07-08T02:08:22;99525.47;;;15.87;78.33
80733;BME280;70130;44.534;18.678;2023-07-08T02:10:50;99524.13;;;15.81;78.59
80733;BME280;70130;44.534;18.678;2023-07-08T02:13:17;99523.84;;;15.98;78.02
80733;BME280;70130;44.534;18.678;2023-07-08T02:15:42;99524.97;;;15.97;77.97
80733;BME280;70130;44.534;18.678;2023-07-08T02:18:08;99522.06;;;15.90;78.51
80733;BME280;70130;44.534;18.678;2023-07-08T02:20:34;99523.84;;;15.98;78.17
80733;BME280;70130;44.534;18.678;2023-07-08T02:23:00;99529.94;;;15.95;77.96
80733;BME280;70130;44.534;18.678;2023-07-08T02:25:25;99530.53;;;15.61;79.09
80733;BME280;70130;44.534;18.678;2023-07-08T02:27:52;99533.53;;;15.71;79.31
80733;BME280;70130;44.534;18.678;2023-07-08T02:30:26;99544.34;;;15.71;78.95
80733;BME280;70130;44.534;18.678;2023-07-08T02:32:51;99545.94;;;15.72;78.87
80733;BME280;70130;44.534;18.678;2023-07-08T02:35:28;99545.25;;;15.75;78.38
80733;BME280;70130;44.534;18.678;2023-07-08T02:37:55;99555.75;;;15.65;78.93
80733;BME280;70130;44.534;18.678;2023-07-08T02:40:22;99558.69;;;15.72;78.50
80733;BME280;70130;44.534;18.678;2023-07-08T02:42:48;99560.75;;;15.63;78.79
80733;BME280;70130;44.534;18.678;2023-07-08T02:45:15;99569.28;;;15.65;78.54
80733;BME280;70130;44.534;18.678;2023-07-08T02:47:41;99575.88;;;15.51;79.21
80733;BME280;70130;44.534;18.678;2023-07-08T02:50:08;99572.84;;;15.53;78.76
80733;BME280;70130;44.534;18.678;2023-07-08T02:52:34;99569.53;;;15.47;78.29
80733;BME280;70130;44.534;18.678;2023-07-08T02:54:59;99575.19;;;15.54;78.57
80733;BME280;70130;44.534;18.678;2023-07-08T02:57:25;99581.38;;;15.55;78.05
80733;BME280;70130;44.534;18.678;2023-07-08T02:59:50;99586.44;;;15.57;77.88
80733;BME280;70130;44.534;18.678;2023-07-08T03:02:16;99594.00;;;15.51;77.79
80733;BME280;70130;44.534;18.678;2023-07-08T03:04:42;99589.03;;;15.41;78.30
80733;BME280;70130;44.534;18.678;2023-07-08T03:07:08;99594.91;;;15.43;78.37
80733;BME280;70130;44.534;18.678;2023-07-08T03:09:40;99597.94;;;15.41;78.37
80733;BME280;70130;44.534;18.678;2023-07-08T03:12:09;99608.75;;;15.41;78.08
80733;BME280;70130;44.534;18.678;2023-07-08T03:14:35;99606.41;;;15.28;78.42
80733;BME280;70130;44.534;18.678;2023-07-08T03:17:02;99605.97;;;15.38;78.46
80733;BME280;70130;44.534;18.678;2023-07-08T03:19:28;99607.53;;;15.39;78.32
80733;BME280;70130;44.534;18.678;2023-07-08T03:21:54;99608.75;;;15.41;78.53
80733;BME280;70130;44.534;18.678;2023-07-08T03:24:19;99611.78;;;15.40;78.24
80733;BME280;70130;44.534;18.678;2023-07-08T03:26:46;99616.09;;;15.41;77.96
80733;BME280;70130;44.534;18.678;2023-07-08T03:29:17;99614.44;;;15.24;78.37
80733;BME280;70130;44.534;18.678;2023-07-08T03:31:45;99617.91;;;15.25;78.67
80733;BME280;70130;44.534;18.678;2023-07-08T03:34:15;99619.25;;;15.31;78.45
80733;BME280;70130;44.534;18.678;2023-07-08T03:36:43;99621.19;;;15.18;78.57
80733;BME280;70130;44.534;18.678;2023-07-08T03:39:16;99616.34;;;15.24;78.25
80733;BME280;70130;44.534;18.678;2023-07-08T03:41:42;99618.25;;;15.23;78.31
80733;BME280;70130;44.534;18.678;2023-07-08T03:44:09;99627.47;;;15.34;78.16
80733;BME280;70130;44.534;18.678;2023-07-08T03:46:35;99625.22;;;15.36;77.53
80733;BME280;70130;44.534;18.678;2023-07-08T03:49:01;99618.69;;;15.25;77.93
80733;BME280;70130;44.534;18.678;2023-07-08T03:51:33;99626.56;;;15.30;78.01
80733;BME280;70130;44.534;18.678;2023-07-08T03:54:00;99624.56;;;15.27;77.85
80733;BME280;70130;44.534;18.678;2023-07-08T03:56:29;99625.34;;;15.28;77.42
80733;BME280;70130;44.534;18.678;2023-07-08T03:58:56;99624.56;;;15.27;77.68
80733;BME280;70130;44.534;18.678;2023-07-08T04:01:24;99637.53;;;15.34;77.56
80733;BME280;70130;44.534;18.678;2023-07-08T04:03:51;99630.06;;;15.31;77.99
80733;BME280;70130;44.534;18.678;2023-07-08T04:06:18;99619.84;;;15.24;78.04
80733;BME280;70130;44.534;18.678;2023-07-08T04:08:43;99644.03;;;15.33;78.14
80733;BME280;70130;44.534;18.678;2023-07-08T04:11:14;99635.47;;;15.43;77.61
80733;BME280;70130;44.534;18.678;2023-07-08T04:13:39;99633.34;;;15.48;77.60
80733;BME280;70130;44.534;18.678;2023-07-08T04:16:06;99631.41;;;15.49;77.32
80733;BME280;70130;44.534;18.678;2023-07-08T04:18:32;99644.28;;;15.52;77.66
80733;BME280;70130;44.534;18.678;2023-07-08T04:20:58;99643.72;;;15.59;77.50
80733;BME280;70130;44.534;18.678;2023-07-08T04:23:24;99630.94;;;15.59;77.57
80733;BME280;70130;44.534;18.678;2023-07-08T04:25:53;99634.22;;;15.65;77.27
80733;BME280;70130;44.534;18.678;2023-07-08T04:28:21;99645.16;;;15.56;77.77
80733;BME280;70130;44.534;18.678;2023-07-08T04:30:47;99646.41;;;15.59;77.64
80733;BME280;70130;44.534;18.678;2023-07-08T04:33:14;99643.13;;;15.65;77.67
80733;BME280;70130;44.534;18.678;2023-07-08T04:35:41;99650.66;;;15.72;77.47
80733;BME280;70130;44.534;18.678;2023-07-08T04:38:17;99654.91;;;15.85;77.66
80733;BME280;70130;44.534;18.678;2023-07-08T04:40:43;99651.53;;;15.88;76.79
80733;BME280;70130;44.534;18.678;2023-07-08T04:43:09;99641.84;;;15.87;76.69
80733;BME280;70130;44.534;18.678;2023-07-08T04:45:39;99657.78;;;16.04;76.63
80733;BME280;70130;44.534;18.678;2023-07-08T04:48:07;99643.34;;;16.12;76.50
80733;BME280;70130;44.534;18.678;2023-07-08T04:50:48;99652.53;;;16.23;76.15
80733;BME280;70130;44.534;18.678;2023-07-08T04:53:14;99644.56;;;16.15;75.97
80733;BME280;70130;44.534;18.678;2023-07-08T04:55:52;99640.94;;;16.23;75.72
80733;BME280;70130;44.534;18.678;2023-07-08T04:58:19;99644.53;;;16.27;76.01
80733;BME280;70130;44.534;18.678;2023-07-08T05:00:45;99663.53;;;16.42;75.75
80733;BME280;70130;44.534;18.678;2023-07-08T05:03:10;99651.78;;;16.38;75.94
80733;BME280;70130;44.534;18.678;2023-07-08T05:05:36;99654.44;;;16.51;75.63
80733;BME280;70130;44.534;18.678;2023-07-08T05:08:02;99649.34;;;16.61;75.37
80733;BME280;70130;44.534;18.678;2023-07-08T05:10:28;99647.59;;;16.69;74.99
80733;BME280;70130;44.534;18.678;2023-07-08T05:12:53;99640.34;;;16.73;75.02
80733;BME280;70130;44.534;18.678;2023-07-08T05:15:19;99647.53;;;16.81;75.35
80733;BME280;70130;44.534;18.678;2023-07-08T05:17:45;99647.53;;;16.81;74.85
80733;BME280;70130;44.534;18.678;2023-07-08T05:20:12;99635.03;;;16.76;74.79
80733;BME280;70130;44.534;18.678;2023-07-08T05:22:39;99638.94;;;16.79;75.24
80733;BME280;70130;44.534;18.678;2023-07-08T05:25:05;99638.34;;;16.86;75.10
80733;BME280;70130;44.534;18.678;2023-07-08T05:27:31;99640.47;;;16.92;75.05
80733;BME280;70130;44.534;18.678;2023-07-08T05:30:00;99646.47;;;17.01;75.29
80733;BME280;70130;44.534;18.678;2023-07-08T05:32:26;99653.66;;;17.09;75.25
80733;BME280;70130;44.534;18.678;2023-07-08T05:34:53;99656.09;;;17.14;75.07
80733;BME280;70130;44.534;18.678;2023-07-08T05:37:19;99657.13;;;17.25;75.06
80733;BME280;70130;44.534;18.678;2023-07-08T05:39:49;99661.50;;;17.30;74.88
80733;BME280;70130;44.534;18.678;2023-07-08T05:42:14;99650.81;;;17.37;74.27
80733;BME280;70130;44.534;18.678;2023-07-08T05:44:40;99647.66;;;17.51;74.01
80733;BME280;70130;44.534;18.678;2023-07-08T05:47:06;99640.00;;;17.56;73.69
80733;BME280;70130;44.534;18.678;2023-07-08T05:49:31;99640.25;;;17.67;73.91
80733;BME280;70130;44.534;18.678;2023-07-08T05:51:57;99646.94;;;17.69;73.21
80733;BME280;70130;44.534;18.678;2023-07-08T05:54:22;99640.44;;;17.74;73.11
80733;BME280;70130;44.534;18.678;2023-07-08T05:56:48;99642.88;;;17.79;73.17
80733;BME280;70130;44.534;18.678;2023-07-08T05:59:13;99636.03;;;17.85;72.99
80733;BME280;70130;44.534;18.678;2023-07-08T06:01:39;99637.78;;;17.97;72.37
80733;BME280;70130;44.534;18.678;2023-07-08T06:04:04;99633.31;;;18.04;71.83
80733;BME280;70130;44.534;18.678;2023-07-08T06:06:30;99629.88;;;18.07;71.19
80733;BME280;70130;44.534;18.678;2023-07-08T06:08:55;99623.75;;;18.10;71.32
80733;BME280;70130;44.534;18.678;2023-07-08T06:11:21;99629.28;;;18.18;71.21
80733;BME280;70130;44.534;18.678;2023-07-08T06:13:47;99630.53;;;18.20;70.97
80733;BME280;70130;44.534;18.678;2023-07-08T06:16:13;99618.13;;;18.23;70.84
80733;BME280;70130;44.534;18.678;2023-07-08T06:18:39;99633.41;;;18.31;70.69
80733;BME280;70130;44.534;18.678;2023-07-08T06:21:05;99620.41;;;18.40;70.30
80733;BME280;70130;44.534;18.678;2023-07-08T06:23:31;99622.53;;;18.50;70.10
80733;BME280;70130;44.534;18.678;2023-07-08T06:25:56;99623.53;;;18.61;70.05
80733;BME280;70130;44.534;18.678;2023-07-08T06:28:22;99627.22;;;18.72;69.08
80733;BME280;70130;44.534;18.678;2023-07-08T06:30:49;99628.06;;;18.76;67.79
80733;BME280;70130;44.534;18.678;2023-07-08T06:33:15;99627.66;;;18.74;68.21
80733;BME280;70130;44.534;18.678;2023-07-08T06:35:40;99620.03;;;18.83;68.70
80733;BME280;70130;44.534;18.678;2023-07-08T06:38:07;99617.66;;;19.05;68.30
80733;BME280;70130;44.534;18.678;2023-07-08T06:40:33;99617.41;;;19.13;67.62
80733;BME280;70130;44.534;18.678;2023-07-08T06:42:59;99612.34;;;19.12;65.68
80733;BME280;70130;44.534;18.678;2023-07-08T06:45:44;99611.97;;;19.13;65.94
80733;BME280;70130;44.534;18.678;2023-07-08T06:48:09;99612.97;;;19.28;65.33
80733;BME280;70130;44.534;18.678;2023-07-08T06:50:35;99600.56;;;19.30;65.71
80733;BME280;70130;44.534;18.678;2023-07-08T06:53:00;99600.09;;;19.51;65.99
80733;BME280;70130;44.534;18.678;2023-07-08T06:55:26;99593.59;;;19.59;65.25
80733;BME280;70130;44.534;18.678;2023-07-08T06:57:52;99595.22;;;19.64;65.28
80733;BME280;70130;44.534;18.678;2023-07-08T07:00:18;99603.13;;;19.72;64.93
80733;BME280;70130;44.534;18.678;2023-07-08T07:02:43;99599.28;;;19.77;64.27
80733;BME280;70130;44.534;18.678;2023-07-08T07:05:09;99597.81;;;19.83;64.21
80733;BME280;70130;44.534;18.678;2023-07-08T07:07:35;99596.72;;;19.91;62.93
80733;BME280;70130;44.534;18.678;2023-07-08T07:10:00;99591.16;;;19.80;63.23
80733;BME280;70130;44.534;18.678;2023-07-08T07:12:26;99584.19;;;19.83;63.29
80733;BME280;70130;44.534;18.678;2023-07-08T07:14:52;99590.53;;;19.94;63.32
80733;BME280;70130;44.534;18.678;2023-07-08T07:17:22;99592.13;;;19.99;63.11
80733;BME280;70130;44.534;18.678;2023-07-08T07:19:48;99585.50;;;19.96;63.44
80733;BME280;70130;44.534;18.678;2023-07-08T07:22:14;99585.91;;;19.98;63.32
80733;BME280;70130;44.534;18.678;2023-07-08T07:24:40;99593.75;;;20.03;63.09
80733;BME280;70130;44.534;18.678;2023-07-08T07:27:06;99588.41;;;20.14;62.94
80733;BME280;70130;44.534;18.678;2023-07-08T07:29:49;99579.25;;;20.29;61.69
80733;BME280;70130;44.534;18.678;2023-07-08T07:32:16;99592.22;;;20.39;62.76
80733;BME280;70130;44.534;18.678;2023-07-08T07:34:42;99586.88;;;20.50;62.04
80733;BME280;70130;44.534;18.678;2023-07-08T07:37:12;99586.91;;;20.53;60.52
80733;BME280;70130;44.534;18.678;2023-07-08T07:39:39;99588.91;;;20.60;60.43
80733;BME280;70130;44.534;18.678;2023-07-08T07:42:05;99582.75;;;20.66;61.01
80733;BME280;70130;44.534;18.678;2023-07-08T07:44:31;99588.59;;;20.68;60.77
80733;BME280;70130;44.534;18.678;2023-07-08T07:46:56;99587.09;;;20.75;61.45
80733;BME280;70130;44.534;18.678;2023-07-08T07:49:22;99572.06;;;20.95;61.03
80733;BME280;70130;44.534;18.678;2023-07-08T07:51:47;99573.66;;;20.99;58.83
80733;BME280;70130;44.534;18.678;2023-07-08T07:54:14;99565.44;;;20.96;58.77
80733;BME280;70130;44.534;18.678;2023-07-08T07:56:39;99573.38;;;21.11;58.32
80733;BME280;70130;44.534;18.678;2023-07-08T07:59:05;99578.81;;;21.11;57.72
80733;BME280;70130;44.534;18.678;2023-07-08T08:01:31;99568.63;;;21.05;57.36
80733;BME280;70130;44.534;18.678;2023-07-08T08:03:56;99574.53;;;21.10;57.32
80733;BME280;70130;44.534;18.678;2023-07-08T08:06:22;99573.78;;;21.17;57.79
80733;BME280;70130;44.534;18.678;2023-07-08T08:08:48;99570.63;;;21.11;57.33
80733;BME280;70130;44.534;18.678;2023-07-08T08:11:15;99574.72;;;21.42;57.79
80733;BME280;70130;44.534;18.678;2023-07-08T08:13:40;99561.47;;;21.41;55.90
80733;BME280;70130;44.534;18.678;2023-07-08T08:16:06;99556.03;;;21.41;56.36
80733;BME280;70130;44.534;18.678;2023-07-08T08:18:31;99556.03;;;21.44;55.85
80733;BME280;70130;44.534;18.678;2023-07-08T08:20:57;99550.63;;;21.59;55.24
80733;BME280;70130;44.534;18.678;2023-07-08T08:23:22;99548.69;;;21.63;55.23
80733;BME280;70130;44.534;18.678;2023-07-08T08:25:50;99533.06;;;21.56;56.15
80733;BME280;70130;44.534;18.678;2023-07-08T08:28:16;99543.69;;;21.79;55.28
80733;BME280;70130;44.534;18.678;2023-07-08T08:30:41;99537.84;;;21.80;54.79
80733;BME280;70130;44.534;18.678;2023-07-08T08:33:07;99540.97;;;21.86;55.84
80733;BME280;70130;44.534;18.678;2023-07-08T08:35:33;99543.00;;;22.03;54.30
80733;BME280;70130;44.534;18.678;2023-07-08T08:37:59;99538.75;;;22.13;53.10
80733;BME280;70130;44.534;18.678;2023-07-08T08:40:24;99534.47;;;22.36;53.33
80733;BME280;70130;44.534;18.678;2023-07-08T08:42:59;99534.84;;;22.31;52.96
80733;BME280;70130;44.534;18.678;2023-07-08T08:45:27;99531.34;;;22.42;52.88
80733;BME280;70130;44.534;18.678;2023-07-08T08:47:58;99534.50;;;22.61;52.83
80733;BME280;70130;44.534;18.678;2023-07-08T08:50:38;99533.72;;;22.64;53.12
80733;BME280;70130;44.534;18.678;2023-07-08T08:53:12;99536.06;;;22.62;52.44
80733;BME280;70130;44.534;18.678;2023-07-08T08:55:38;99551.72;;;22.76;52.14
80733;BME280;70130;44.534;18.678;2023-07-08T08:58:29;99537.66;;;22.74;50.72
80733;BME280;70130;44.534;18.678;2023-07-08T09:00:59;99544.66;;;22.75;51.56
80733;BME280;70130;44.534;18.678;2023-07-08T09:03:34;99547.78;;;22.98;50.71
80733;BME280;70130;44.534;18.678;2023-07-08T09:06:01;99539.94;;;23.00;49.98
80733;BME280;70130;44.534;18.678;2023-07-08T09:08:35;99536.06;;;23.01;48.99
80733;BME280;70130;44.534;18.678;2023-07-08T09:11:39;99534.47;;;23.07;48.95
80733;BME280;70130;44.534;18.678;2023-07-08T09:14:20;99535.63;;;23.17;48.81
80733;BME280;70130;44.534;18.678;2023-07-08T09:19:32;99548.47;;;23.52;49.71
80733;BME280;70130;44.534;18.678;2023-07-08T09:22:06;99546.84;;;23.65;49.37
80733;BME280;70130;44.534;18.678;2023-07-08T09:24:58;99543.19;;;23.93;49.73
80733;BME280;70130;44.534;18.678;2023-07-08T09:27:26;99546.28;;;23.98;49.14
80733;BME280;70130;44.534;18.678;2023-07-08T09:29:52;99545.81;;;24.18;49.28
80733;BME280;70130;44.534;18.678;2023-07-08T09:32:27;99550.28;;;23.87;49.38
80733;BME280;70130;44.534;18.678;2023-07-08T09:35:05;99545.59;;;23.87;49.68
80733;BME280;70130;44.534;18.678;2023-07-08T09:37:35;99534.66;;;23.73;49.86
80733;BME280;70130;44.534;18.678;2023-07-08T09:40:14;99538.91;;;23.92;48.64
80733;BME280;70130;44.534;18.678;2023-07-08T09:42:42;99543.78;;;24.29;48.71
80733;BME280;70130;44.534;18.678;2023-07-08T09:45:15;99551.16;;;24.39;48.55
80733;BME280;70130;44.534;18.678;2023-07-08T09:47:42;99537.41;;;24.42;48.39
80733;BME280;70130;44.534;18.678;2023-07-08T09:52:48;99551.69;;;24.75;46.26
80733;BME280;70130;44.534;18.678;2023-07-08T09:55:15;99551.47;;;25.00;45.54
80733;BME280;70130;44.534;18.678;2023-07-08T09:57:43;99546.28;;;25.09;45.63
80733;BME280;70130;44.534;18.678;2023-07-08T10:00:13;99541.38;;;24.89;45.13
80733;BME280;70130;44.534;18.678;2023-07-08T10:02:42;99540.78;;;24.64;45.38
80733;BME280;70130;44.534;18.678;2023-07-08T10:05:39;99531.72;;;24.67;45.94
80733;BME280;70130;44.534;18.678;2023-07-08T10:10:41;99529.22;;;24.90;47.01
80733;BME280;70130;44.534;18.678;2023-07-08T10:13:33;99513.84;;;24.97;47.52
80733;BME280;70130;44.534;18.678;2023-07-08T10:16:14;99522.41;;;25.06;48.04
80733;BME280;70130;44.534;18.678;2023-07-08T10:18:41;99520.00;;;25.08;47.24
80733;BME280;70130;44.534;18.678;2023-07-08T10:26:52;99517.88;;;24.37;50.35
80733;BME280;70130;44.534;18.678;2023-07-08T10:35:21;99517.38;;;24.49;50.42
80733;BME280;70130;44.534;18.678;2023-07-08T10:46:10;99489.69;;;24.77;47.59
80733;BME280;70130;44.534;18.678;2023-07-08T10:49:05;99491.03;;;25.03;46.67
80733;BME280;70130;44.534;18.678;2023-07-08T10:57:08;99491.19;;;25.60;45.88
80733;BME280;70130;44.534;18.678;2023-07-08T10:59:59;99487.84;;;25.42;45.36
80733;BME280;70130;44.534;18.678;2023-07-08T11:03:06;99490.25;;;25.70;43.60
80733;BME280;70130;44.534;18.678;2023-07-08T11:05:45;99488.38;;;25.94;42.48
80733;BME280;70130;44.534;18.678;2023-07-08T11:08:30;99489.06;;;26.29;42.27
80733;BME280;70130;44.534;18.678;2023-07-08T11:11:04;99483.97;;;26.27;43.59
80733;BME280;70130;44.534;18.678;2023-07-08T11:13:35;99474.44;;;26.55;42.44
80733;BME280;70130;44.534;18.678;2023-07-08T11:16:10;99468.41;;;26.63;41.70
80733;BME280;70130;44.534;18.678;2023-07-08T11:18:47;99465.41;;;26.78;41.47
80733;BME280;70130;44.534;18.678;2023-07-08T11:21:21;99467.53;;;27.13;40.61
80733;BME280;70130;44.534;18.678;2023-07-08T11:26:38;99462.03;;;27.53;39.81
80733;BME280;70130;44.534;18.678;2023-07-08T11:29:17;99458.31;;;27.59;37.06
80733;BME280;70130;44.534;18.678;2023-07-08T11:31:44;99452.41;;;27.77;36.83
80733;BME280;70130;44.534;18.678;2023-07-08T11:34:12;99439.72;;;27.63;36.11
80733;BME280;70130;44.534;18.678;2023-07-08T11:36:39;99446.72;;;27.84;37.45
80733;BME280;70130;44.534;18.678;2023-07-08T11:39:38;99448.69;;;27.67;36.85
80733;BME280;70130;44.534;18.678;2023-07-08T11:42:17;99443.13;;;27.51;37.60
80733;BME280;70130;44.534;18.678;2023-07-08T11:44:47;99434.47;;;27.69;36.50
80733;BME280;70130;44.534;18.678;2023-07-08T11:47:31;99433.25;;;27.70;36.64
80733;BME280;70130;44.534;18.678;2023-07-08T11:49:58;99429.06;;;27.98;36.68
80733;BME280;70130;44.534;18.678;2023-07-08T11:52:24;99433.75;;;28.33;36.98
80733;BME280;70130;44.534;18.678;2023-07-08T11:54:57;99443.00;;;28.26;36.65
80733;BME280;70130;44.534;18.678;2023-07-08T11:57:30;99437.66;;;28.19;37.67
80733;BME280;70130;44.534;18.678;2023-07-08T12:00:18;99432.16;;;27.47;37.11
80733;BME280;70130;44.534;18.678;2023-07-08T12:02:56;99425.97;;;27.04;39.57
80733;BME280;70130;44.534;18.678;2023-07-08T12:05:35;99429.88;;;26.40;40.31
80733;BME280;70130;44.534;18.678;2023-07-08T12:08:03;99430.72;;;26.14;39.33
80733;BME280;70130;44.534;18.678;2023-07-08T12:10:42;99434.56;;;26.16;39.01
80733;BME280;70130;44.534;18.678;2023-07-08T12:13:14;99427.53;;;26.15;39.78
80733;BME280;70130;44.534;18.678;2023-07-08T12:15:41;99417.44;;;26.09;39.60
80733;BME280;70130;44.534;18.678;2023-07-08T12:18:19;99428.09;;;26.30;39.40
80733;BME280;70130;44.534;18.678;2023-07-08T12:20:56;99426.53;;;26.52;38.89
80733;BME280;70130;44.534;18.678;2023-07-08T12:23:25;99425.06;;;27.11;37.59
80733;BME280;70130;44.534;18.678;2023-07-08T12:25:52;99414.72;;;27.54;36.65
80733;BME280;70130;44.534;18.678;2023-07-08T12:28:18;99423.78;;;27.71;36.71
80733;BME280;70130;44.534;18.678;2023-07-08T12:30:46;99430.38;;;27.77;35.52
80733;BME280;70130;44.534;18.678;2023-07-08T12:33:14;99411.75;;;27.81;35.21
80733;BME280;70130;44.534;18.678;2023-07-08T12:35:42;99424.53;;;28.07;35.61
80733;BME280;70130;44.534;18.678;2023-07-08T12:38:30;99409.00;;;28.46;33.98
80733;BME280;70130;44.534;18.678;2023-07-08T12:41:01;99424.13;;;28.86;33.92
80733;BME280;70130;44.534;18.678;2023-07-08T12:43:27;99424.88;;;29.15;32.75
80733;BME280;70130;44.534;18.678;2023-07-08T12:45:52;99422.41;;;29.17;33.31
80733;BME280;70130;44.534;18.678;2023-07-08T12:48:18;99409.53;;;28.41;34.11
80733;BME280;70130;44.534;18.678;2023-07-08T12:50:44;99404.72;;;28.57;34.26
80733;BME280;70130;44.534;18.678;2023-07-08T12:53:11;99409.72;;;28.62;33.72
80733;BME280;70130;44.534;18.678;2023-07-08T12:55:43;99408.31;;;28.42;34.93
80733;BME280;70130;44.534;18.678;2023-07-08T12:58:15;99410.22;;;28.28;35.34
80733;BME280;70130;44.534;18.678;2023-07-08T13:00:43;99416.81;;;27.99;36.09
80733;BME280;70130;44.534;18.678;2023-07-08T13:03:16;99412.59;;;27.94;35.27
80733;BME280;70130;44.534;18.678;2023-07-08T13:05:43;99413.25;;;27.49;35.60
80733;BME280;70130;44.534;18.678;2023-07-08T13:08:13;99418.13;;;27.42;36.77
80733;BME280;70130;44.534;18.678;2023-07-08T13:10:40;99420.91;;;27.22;36.37
80733;BME280;70130;44.534;18.678;2023-07-08T13:13:10;99414.09;;;27.27;36.63
80733;BME280;70130;44.534;18.678;2023-07-08T13:15:39;99408.50;;;27.50;36.42
80733;BME280;70130;44.534;18.678;2023-07-08T13:18:08;99410.97;;;27.44;36.05
80733;BME280;70130;44.534;18.678;2023-07-08T13:20:38;99413.47;;;27.91;35.55
80733;BME280;70130;44.534;18.678;2023-07-08T13:23:04;99408.69;;;28.11;35.86
80733;BME280;70130;44.534;18.678;2023-07-08T13:25:31;99411.75;;;27.97;35.71
80733;BME280;70130;44.534;18.678;2023-07-08T13:27:58;99408.09;;;27.52;35.29
80733;BME280;70130;44.534;18.678;2023-07-08T13:30:27;99408.34;;;27.57;35.81
80733;BME280;70130;44.534;18.678;2023-07-08T13:32:54;99398.16;;;27.54;36.51
80733;BME280;70130;44.534;18.678;2023-07-08T13:35:33;99400.63;;;27.48;36.19
80733;BME280;70130;44.534;18.678;2023-07-08T13:38:01;99389.00;;;27.41;37.27
80733;BME280;70130;44.534;18.678;2023-07-08T13:40:28;99401.81;;;27.31;35.89